Time;durP1;ratioP1;P1;durP2;ratioP2;P2;SDS_P1;SDS_P2;PMS_P1;PMS_P2;Temp;Humidity;BMP_temperature;BMP_pressure;BME280_temperature;BME280_humidity;BME280_pressure;Samples;Min_cycle;Max_cycle;Signal;HPM_P1;HPM_P2
2022/01/17 00:00:14;;;;;;;0.93;0.40;;;;;;;10.25;29.26;99336.50;4996523;28;20072;-62
2022/01/17 00:02:40;;;;;;;0.93;0.30;;;;;;;10.13;30.64;99346.94;4958822;28;20026;-64
2022/01/17 00:05:06;;;;;;;0.70;0.30;;;;;;;10.03;31.57;99369.41;4994269;28;20254;-62
2022/01/17 00:07:32;;;;;;;1.20;0.40;;;;;;;10.13;28.89;99353.91;4990458;28;20030;-61
2022/01/17 00:09:58;;;;;;;1.45;0.50;;;;;;;9.98;31.24;99374.16;4990106;28;20061;-63
2022/01/17 00:12:24;;;;;;;1.05;0.40;;;;;;;10.00;29.09;99356.66;4996384;28;20113;-62
2022/01/17 00:14:50;;;;;;;1.33;0.40;;;;;;;10.07;28.42;99357.81;4996145;28;20069;-62
2022/01/17 00:19:46;;;;;;;0.98;0.30;;;;;;;9.72;26.88;99314.69;4986902;28;20044;-62
2022/01/17 00:22:13;;;;;;;2.00;0.50;;;;;;;10.18;27.65;99357.81;5000433;28;20499;-62
2022/01/17 00:24:40;;;;;;;2.40;0.57;;;;;;;10.22;28.75;99366.16;4979733;28;20322;-63
2022/01/17 00:27:06;;;;;;;1.38;0.40;;;;;;;10.10;30.32;99349.78;4998186;28;20388;-63
2022/01/17 00:29:32;;;;;;;1.55;0.50;;;;;;;10.22;28.08;99368.75;4995483;28;20025;-62
2022/01/17 00:31:57;;;;;;;4.43;0.50;;;;;;;10.37;29.57;99370.16;5002179;28;20029;-63
2022/01/17 00:34:24;;;;;;;0.93;0.35;;;;;;;9.93;29.54;99324.31;4982890;28;20041;-62
2022/01/17 00:36:49;;;;;;;1.08;0.28;;;;;;;10.15;28.72;99368.44;4991117;28;20411;-62
2022/01/17 00:39:16;;;;;;;1.23;0.30;;;;;;;10.25;28.77;99381.50;5002116;28;20034;-61
2022/01/17 00:41:41;;;;;;;1.02;0.40;;;;;;;10.11;27.28;99335.84;4999828;28;20381;-63
2022/01/17 00:44:07;;;;;;;0.93;0.30;;;;;;;10.45;29.30;99395.53;5001234;28;20069;-62
2022/01/17 00:46:33;;;;;;;1.52;0.40;;;;;;;10.43;27.74;99378.41;4985930;28;20034;-62
2022/01/17 00:48:58;;;;;;;1.02;0.35;;;;;;;10.47;30.08;99380.63;5002759;28;20030;-61
2022/01/17 00:51:24;;;;;;;1.55;0.40;;;;;;;9.85;33.24;99332.72;5000265;28;20080;-62
2022/01/17 00:53:50;;;;;;;1.67;0.40;;;;;;;10.04;30.52;99391.00;5002592;28;20029;-63
2022/01/17 00:56:15;;;;;;;1.95;0.50;;;;;;;10.11;31.04;99374.00;5001121;28;20026;-61
2022/01/17 00:58:41;;;;;;;1.38;0.40;;;;;;;10.06;30.83;99378.72;5000163;28;20540;-61
2022/01/17 01:01:06;;;;;;;1.40;0.50;;;;;;;10.13;30.29;99369.50;4920812;28;21859;-63
2022/01/17 01:03:32;;;;;;;0.40;0.20;;;;;;;10.04;29.87;99368.47;4995693;28;20596;-61
2022/01/17 01:05:57;;;;;;;1.45;0.40;;;;;;;10.38;29.29;99391.75;5000192;28;20029;-62
2022/01/17 01:08:23;;;;;;;2.42;0.75;;;;;;;10.00;29.36;99346.25;5001455;28;20560;-62
2022/01/17 01:10:48;;;;;;;0.73;0.30;;;;;;;10.24;30.10;99394.63;5003074;28;20041;-62
2022/01/17 01:13:16;;;;;;;0.60;0.20;;;;;;;10.20;32.36;99388.84;5001117;28;20084;-62
2022/01/17 01:18:19;;;;;;;1.92;0.50;;;;;;;9.87;30.73;99327.41;4999283;28;20034;-62
2022/01/17 01:28:42;;;;;;;1.17;0.32;;;;;;;9.90;34.99;99394.72;4999109;28;20574;-62
2022/01/17 01:31:14;;;;;;;1.10;0.30;;;;;;;9.93;31.71;99408.28;4997550;28;20042;-60
2022/01/17 01:33:43;;;;;;;1.25;0.40;;;;;;;9.85;33.22;99396.84;5000524;28;20033;-62
2022/01/17 01:36:15;;;;;;;1.27;0.43;;;;;;;9.88;33.31;99388.81;5001900;28;20033;-61
2022/01/17 01:38:41;;;;;;;1.55;0.38;;;;;;;9.90;32.02;99397.31;5000400;28;20034;-61
2022/01/17 01:41:07;;;;;;;0.95;0.38;;;;;;;10.02;30.10;99401.56;5006575;28;20026;-62
2022/01/17 01:43:32;;;;;;;1.05;0.30;;;;;;;9.92;29.93;99393.66;4992140;28;20041;-62
2022/01/17 01:46:00;;;;;;;1.25;0.47;;;;;;;10.19;28.25;99388.03;5003227;28;20677;-61
2022/01/17 01:48:27;;;;;;;1.23;0.30;;;;;;;9.92;28.27;99346.06;5007529;28;20030;-61
2022/01/17 01:50:53;;;;;;;1.20;0.30;;;;;;;9.96;30.72;99394.22;4999879;28;20030;-61
2022/01/17 01:53:18;;;;;;;1.42;0.40;;;;;;;10.03;31.40;99395.41;4986699;28;20049;-61
2022/01/17 01:55:44;;;;;;;2.38;0.50;;;;;;;9.95;29.97;99383.00;5003697;28;20045;-62
2022/01/17 01:58:10;;;;;;;1.05;0.40;;;;;;;10.00;28.39;99383.47;5005956;28;20087;-62
2022/01/17 02:00:36;;;;;;;1.63;0.50;;;;;;;9.92;29.19;99391.03;5003861;28;20383;-60
2022/01/17 02:03:03;;;;;;;2.10;0.40;;;;;;;9.97;32.85;99396.72;5003931;28;20424;-61
2022/01/17 02:05:29;;;;;;;1.35;0.30;;;;;;;9.97;28.43;99382.91;4996834;28;20026;-62
2022/01/17 02:07:54;;;;;;;1.42;0.32;;;;;;;9.98;28.85;99397.53;5006299;28;20064;-61
2022/01/17 02:10:19;;;;;;;0.95;0.30;;;;;;;10.05;28.82;99390.09;5008138;28;20030;-62
2022/01/17 02:12:45;;;;;;;1.00;0.30;;;;;;;9.93;29.64;99389.25;4996223;28;20032;-61
2022/01/17 02:15:13;;;;;;;1.42;0.43;;;;;;;9.88;30.90;99376.66;5004816;28;20725;-62
2022/01/17 02:17:45;;;;;;;1.58;0.40;;;;;;;9.88;29.28;99374.06;5001769;28;20026;-61
2022/01/17 02:20:17;;;;;;;1.45;0.40;;;;;;;10.03;30.34;99373.78;5004345;28;20767;-62
2022/01/17 02:22:42;;;;;;;0.93;0.30;;;;;;;9.91;29.37;99370.38;4999934;28;20034;-61
2022/01/17 02:25:08;;;;;;;1.30;0.40;;;;;;;9.47;29.01;99331.38;5005307;28;20512;-63
2022/01/17 02:27:34;;;;;;;1.55;0.40;;;;;;;9.78;30.34;99389.56;4959113;28;20037;-61
2022/01/17 02:29:59;;;;;;;1.15;0.40;;;;;;;9.77;30.56;99395.69;5003226;28;20026;-61
2022/01/17 02:32:25;;;;;;;1.63;0.40;;;;;;;9.71;30.66;99385.78;4996368;28;20041;-61
2022/01/17 02:34:50;;;;;;;1.33;0.35;;;;;;;9.76;28.93;99380.22;5004837;28;20489;-62
2022/01/17 02:37:18;;;;;;;2.53;0.40;;;;;;;9.78;29.58;99379.16;4997905;28;20101;-62
2022/01/17 02:39:44;;;;;;;1.60;0.40;;;;;;;9.80;29.23;99361.69;5003948;28;20052;-62
2022/01/17 02:42:11;;;;;;;1.45;0.40;;;;;;;9.65;33.18;99355.09;5002968;28;20042;-62
2022/01/17 02:44:44;;;;;;;1.88;0.40;;;;;;;9.32;32.46;99317.84;4999937;28;20092;-62
2022/01/17 02:47:09;;;;;;;0.77;0.28;;;;;;;9.60;31.47;99363.25;4980102;28;20096;-61
2022/01/17 02:49:35;;;;;;;0.85;0.30;;;;;;;9.40;33.09;99325.03;5001278;28;20029;-61
2022/01/17 02:52:00;;;;;;;0.45;0.20;;;;;;;9.67;32.26;99368.78;4997030;28;20042;-62
2022/01/17 02:54:25;;;;;;;1.33;0.32;;;;;;;9.73;29.03;99368.31;4998948;28;20034;-61
2022/01/17 02:56:51;;;;;;;2.35;0.30;;;;;;;9.77;27.91;99332.53;5001072;28;20424;-62
2022/01/17 02:59:16;;;;;;;1.05;0.30;;;;;;;9.94;28.38;99365.75;5005174;28;20053;-62
2022/01/17 03:01:42;;;;;;;1.92;0.40;;;;;;;9.79;28.87;99339.25;5005517;28;20037;-62
2022/01/17 03:04:07;;;;;;;0.68;0.30;;;;;;;9.82;29.08;99359.78;5001836;28;20094;-62
2022/01/17 03:06:32;;;;;;;1.55;0.40;;;;;;;9.66;30.39;99358.53;5004082;28;20843;-61
2022/01/17 03:08:58;;;;;;;1.10;0.30;;;;;;;9.58;30.24;99357.34;4961938;28;20049;-62
2022/01/17 03:11:27;;;;;;;1.75;0.40;;;;;;;9.54;31.22;99365.50;5002363;28;20729;-62
2022/01/17 03:13:53;;;;;;;1.55;0.47;;;;;;;9.55;30.91;99367.16;5000504;28;20034;-62
2022/01/17 03:16:28;;;;;;;1.58;0.47;;;;;;;9.56;30.48;99369.59;4995372;28;20544;-62
2022/01/17 03:18:53;;;;;;;1.70;0.40;;;;;;;9.29;29.92;99312.06;5001182;28;20030;-62
2022/01/17 03:21:20;;;;;;;1.58;0.45;;;;;;;9.58;29.85;99356.50;5004343;28;20497;-62
2022/01/17 03:23:47;;;;;;;1.67;0.50;;;;;;;9.76;29.04;99360.25;4969979;28;20152;-63
2022/01/17 03:26:13;;;;;;;1.23;0.40;;;;;;;9.88;28.57;99355.06;4967362;28;20037;-62
2022/01/17 03:28:38;;;;;;;1.40;0.40;;;;;;;9.91;28.27;99353.03;5003481;28;20060;-62
2022/01/17 03:31:05;;;;;;;1.02;0.40;;;;;;;10.08;28.19;99353.47;4982927;28;20022;-62
2022/01/17 03:33:30;;;;;;;1.20;0.40;;;;;;;9.82;28.66;99322.59;5003847;28;20113;-62
2022/01/17 03:35:56;;;;;;;1.48;0.50;;;;;;;9.92;29.08;99340.88;5002791;28;20116;-62
2022/01/17 03:38:25;;;;;;;1.38;0.50;;;;;;;10.13;28.24;99359.94;4983345;28;20023;-61
2022/01/17 03:40:51;;;;;;;0.80;0.32;;;;;;;9.90;28.27;99346.19;5003717;28;20030;-63
2022/01/17 03:43:22;;;;;;;0.90;0.40;;;;;;;10.37;27.01;99388.34;5003121;28;20052;-61
2022/01/17 03:45:49;;;;;;;1.42;0.30;;;;;;;10.50;26.94;99382.16;4993225;28;20033;-62
2022/01/17 03:48:15;;;;;;;0.68;0.30;;;;;;;10.30;27.58;99368.97;5000354;28;21365;-61
2022/01/17 03:50:41;;;;;;;0.55;0.20;;;;;;;10.49;27.44;99391.72;5002456;28;20781;-61
2022/01/17 03:53:06;;;;;;;1.02;0.32;;;;;;;10.43;27.24;99394.00;4984495;28;20027;-61
2022/01/17 03:55:34;;;;;;;1.35;0.40;;;;;;;10.39;27.63;99391.66;5004562;28;20038;-61
2022/01/17 03:58:00;;;;;;;0.90;0.30;;;;;;;10.36;27.60;99384.09;5004030;28;20042;-62
2022/01/17 04:00:29;;;;;;;0.60;0.30;;;;;;;10.30;27.94;99391.53;4974669;28;20124;-62
2022/01/17 04:02:54;;;;;;;2.20;0.38;;;;;;;9.91;28.03;99347.84;5002601;28;20032;-61
2022/01/17 04:05:20;;;;;;;0.63;0.25;;;;;;;9.98;28.43;99379.34;5001591;28;20033;-61
2022/01/17 04:07:46;;;;;;;1.20;0.40;;;;;;;10.06;27.94;99395.16;4994455;28;20542;-62
2022/01/17 04:10:13;;;;;;;1.17;0.30;;;;;;;9.96;28.41;99399.41;5001562;28;20632;-62
2022/01/17 04:12:39;;;;;;;0.63;0.40;;;;;;;9.61;28.80;99345.91;5002976;28;20095;-62
2022/01/17 04:15:06;;;;;;;1.02;0.30;;;;;;;9.97;28.75;99390.69;5001278;28;20113;-61
2022/01/17 04:17:32;;;;;;;0.52;0.30;;;;;;;9.92;28.25;99359.88;5000667;28;20137;-62
2022/01/17 04:20:04;;;;;;;1.08;0.40;;;;;;;9.86;29.04;99365.56;5003761;28;20164;-61
2022/01/17 04:22:39;;;;;;;1.52;0.30;;;;;;;9.84;28.57;99349.28;5000260;28;20035;-61
2022/01/17 04:25:06;;;;;;;0.57;0.30;;;;;;;9.74;28.71;99336.19;5004235;28;20931;-62
2022/01/17 04:27:32;;;;;;;1.17;0.40;;;;;;;10.01;30.51;99392.09;5002882;28;20077;-61
2022/01/17 04:29:57;;;;;;;1.02;0.30;;;;;;;9.98;31.08;99380.19;4958366;28;20291;-62
2022/01/17 04:32:23;;;;;;;1.42;0.38;;;;;;;9.89;30.58;99383.47;5003064;28;20630;-62
2022/01/17 04:34:50;;;;;;;0.70;0.20;;;;;;;10.03;31.92;99387.59;4998294;28;20034;-61
2022/01/17 04:37:16;;;;;;;0.47;0.20;;;;;;;9.82;32.01;99333.81;4996504;28;20032;-62
2022/01/17 04:39:41;;;;;;;0.90;0.30;;;;;;;10.16;31.94;99364.88;4986149;28;20038;-62
2022/01/17 04:42:12;;;;;;;3.08;0.40;;;;;;;10.19;32.50;99372.44;4986492;28;20116;-61
2022/01/17 04:47:25;;;;;;;1.15;0.30;;;;;;;10.06;34.61;99357.94;4998021;28;20088;-62
2022/01/17 04:49:51;;;;;;;1.45;0.32;;;;;;;10.06;32.89;99358.78;5000944;28;20029;-63
2022/01/17 04:52:16;;;;;;;0.30;0.20;;;;;;;10.28;30.86;99355.28;4990922;28;20056;-61
2022/01/17 04:54:44;;;;;;;0.73;0.20;;;;;;;10.36;31.17;99339.06;5002612;28;20072;-62
2022/01/17 04:57:11;;;;;;;0.35;0.30;;;;;;;10.21;35.27;99333.31;4998950;28;20033;-62
2022/01/17 04:59:38;;;;;;;0.52;0.30;;;;;;;10.19;32.37;99353.41;5000721;28;20408;-63
2022/01/17 05:02:04;;;;;;;2.05;0.38;;;;;;;10.19;31.40;99333.44;5004045;28;20045;-62
2022/01/17 05:04:29;;;;;;;1.00;0.20;;;;;;;10.54;29.76;99337.56;4997313;28;20021;-62
2022/01/17 05:06:55;;;;;;;1.23;0.28;;;;;;;10.67;31.33;99344.34;5001671;28;20553;-62
2022/01/17 05:09:20;;;;;;;1.20;0.38;;;;;;;10.62;31.94;99349.09;4986314;28;20109;-61
2022/01/17 05:11:46;;;;;;;0.50;0.30;;;;;;;10.46;32.66;99349.53;4959943;28;20276;-63
2022/01/17 05:14:11;;;;;;;0.98;0.35;;;;;;;10.45;32.02;99358.31;4964431;28;20551;-62
2022/01/17 05:16:44;;;;;;;0.65;0.30;;;;;;;10.57;31.15;99360.72;5002714;28;20488;-62
2022/01/17 05:21:53;;;;;;;0.57;0.20;;;;;;;10.56;33.90;99363.44;4995512;28;20503;-61
2022/01/17 05:24:18;;;;;;;1.00;0.28;;;;;;;10.64;28.26;99311.63;5001710;28;20576;-62
2022/01/17 05:26:44;;;;;;;0.35;0.20;;;;;;;10.72;33.41;99357.81;5001740;28;20440;-61
2022/01/17 05:29:09;;;;;;;0.50;0.20;;;;;;;10.58;31.33;99359.75;4984708;28;20476;-62
2022/01/17 05:31:35;;;;;;;0.75;0.40;;;;;;;10.44;34.35;99367.03;5001770;28;20054;-62
2022/01/17 05:34:00;;;;;;;0.98;0.20;;;;;;;10.70;30.15;99364.91;4956775;28;20325;-63
2022/01/17 05:36:26;;;;;;;1.20;0.20;;;;;;;10.81;30.06;99372.66;4975472;28;20034;-62
2022/01/17 05:38:54;;;;;;;0.82;0.35;;;;;;;10.65;30.88;99367.06;5000908;28;20034;-62
2022/01/17 05:41:19;;;;;;;0.93;0.30;;;;;;;10.76;29.46;99370.41;5001731;28;20677;-62
2022/01/17 05:43:45;;;;;;;0.88;0.28;;;;;;;11.03;28.47;99353.47;4997683;28;20630;-61
2022/01/17 05:46:10;;;;;;;0.80;0.30;;;;;;;10.83;29.07;99321.31;4987323;28;20489;-61
2022/01/17 05:48:36;;;;;;;0.70;0.28;;;;;;;11.37;28.25;99355.78;4981589;28;21382;-62
2022/01/17 05:51:01;;;;;;;1.48;0.40;;;;;;;11.29;28.51;99358.22;5004181;28;20040;-62
2022/01/17 05:53:27;;;;;;;0.68;0.20;;;;;;;11.32;28.39;99353.59;5004919;28;20512;-62
2022/01/17 05:55:52;;;;;;;1.05;0.30;;;;;;;11.27;27.66;99355.75;4991102;28;20452;-62
2022/01/17 05:58:18;;;;;;;1.20;0.30;;;;;;;11.13;28.41;99356.94;5004811;28;20389;-62
2022/01/17 06:00:43;;;;;;;0.25;0.20;;;;;;;10.81;27.08;99323.22;5005212;28;20046;-62
2022/01/17 06:03:09;;;;;;;0.95;0.30;;;;;;;11.15;27.04;99355.03;5005581;28;20030;-61
2022/01/17 06:05:34;;;;;;;0.50;0.28;;;;;;;11.12;27.33;99360.50;5007316;28;20037;-62
2022/01/17 06:07:59;;;;;;;1.23;0.40;;;;;;;11.35;25.82;99361.16;5007972;28;20049;-61
2022/01/17 06:10:25;;;;;;;0.40;0.20;;;;;;;11.33;26.86;99351.81;5006112;28;20934;-61
2022/01/17 06:12:50;;;;;;;0.98;0.30;;;;;;;10.98;28.43;99311.38;5002276;28;20054;-62
2022/01/17 06:15:18;;;;;;;1.55;0.47;;;;;;;11.03;28.88;99356.06;4988423;28;20573;-62
2022/01/17 06:17:44;;;;;;;0.90;0.30;;;;;;;10.82;28.32;99360.47;4960275;28;20026;-63
2022/01/17 06:20:10;;;;;;;0.68;0.28;;;;;;;10.95;27.38;99374.09;4981233;28;20030;-61
2022/01/17 06:22:36;;;;;;;0.68;0.30;;;;;;;11.25;26.93;99364.66;5000483;28;20053;-61
2022/01/17 06:25:02;;;;;;;1.38;0.40;;;;;;;11.39;26.20;99345.25;4987417;28;20662;-64
2022/01/17 06:27:27;;;;;;;0.52;0.20;;;;;;;11.15;26.51;99305.59;4985302;28;20077;-62
2022/01/17 06:29:53;;;;;;;0.20;0.20;;;;;;;11.35;27.00;99340.31;4988111;28;20045;-61
2022/01/17 06:32:18;;;;;;;2.10;0.47;;;;;;;11.57;25.57;99328.03;4998091;28;20117;-61
2022/01/17 06:34:44;;;;;;;0.65;0.30;;;;;;;11.45;26.18;99334.31;5001433;28;20030;-62
2022/01/17 06:37:09;;;;;;;0.68;0.25;;;;;;;11.52;26.65;99333.66;4986733;28;20504;-62
2022/01/17 06:39:35;;;;;;;0.85;0.35;;;;;;;11.43;27.48;99344.03;5003911;28;20033;-63
2022/01/17 06:42:00;;;;;;;1.08;0.28;;;;;;;11.27;29.66;99352.34;5005639;28;20057;-61
2022/01/17 06:44:25;;;;;;;0.85;0.30;;;;;;;10.90;27.80;99304.22;4996714;28;20057;-61
2022/01/17 06:46:51;;;;;;;0.70;0.32;;;;;;;11.51;25.73;99355.44;4993175;28;20045;-61
2022/01/17 06:49:16;;;;;;;0.98;0.25;;;;;;;11.52;26.42;99354.47;4994757;28;20377;-61
2022/01/17 06:51:41;;;;;;;1.05;0.30;;;;;;;11.32;26.42;99332.75;4992371;28;20685;-61
2022/01/17 06:54:07;;;;;;;1.38;0.40;;;;;;;11.48;26.81;99378.31;4984774;28;20045;-61
2022/01/17 06:56:32;;;;;;;0.50;0.20;;;;;;;11.33;30.79;99385.66;4994824;28;20049;-62
2022/01/17 06:58:58;;;;;;;2.15;0.40;;;;;;;11.09;27.99;99344.31;4994660;28;20117;-62
2022/01/17 07:01:23;;;;;;;0.70;0.25;;;;;;;11.24;28.82;99383.81;5004798;28;20074;-61
2022/01/17 07:03:50;;;;;;;0.55;0.30;;;;;;;11.50;25.67;99371.22;4991909;28;20545;-62
2022/01/17 07:06:16;;;;;;;0.20;0.10;;;;;;;11.45;28.68;99392.41;4991458;28;20535;-61
2022/01/17 07:08:43;;;;;;;2.05;0.30;;;;;;;11.25;29.36;99373.28;4949521;28;20034;-62
2022/01/17 07:11:08;;;;;;;0.52;0.20;;;;;;;11.49;26.56;99364.34;4993422;28;20136;-61
2022/01/17 07:13:34;;;;;;;1.00;0.32;;;;;;;11.56;27.11;99373.28;4991789;28;20636;-61
2022/01/17 07:15:59;;;;;;;0.93;0.22;;;;;;;11.32;29.61;99387.44;4993078;28;20045;-61
2022/01/17 07:18:25;;;;;;;1.17;0.38;;;;;;;10.87;29.04;99379.94;4992374;28;20056;-62
2022/01/17 07:20:50;;;;;;;1.05;0.30;;;;;;;11.25;27.92;99382.88;5002464;28;20025;-62
2022/01/17 07:23:16;;;;;;;1.27;0.40;;;;;;;11.30;29.34;99384.13;4997194;28;20065;-62
2022/01/17 07:25:41;;;;;;;0.55;0.20;;;;;;;11.07;29.06;99385.25;4983075;28;20552;-62
2022/01/17 07:28:12;;;;;;;0.88;0.30;;;;;;;11.11;28.83;99371.03;5005175;28;20073;-61
2022/01/17 07:30:37;;;;;;;0.57;0.30;;;;;;;11.28;28.29;99393.03;4989260;28;20026;-62
2022/01/17 07:33:04;;;;;;;0.80;0.30;;;;;;;10.96;31.31;99405.19;4991115;28;20030;-61
2022/01/17 07:35:30;;;;;;;0.80;0.30;;;;;;;10.83;30.02;99404.56;4984552;28;20022;-62
2022/01/17 07:37:55;;;;;;;0.47;0.20;;;;;;;10.86;28.33;99354.88;4992134;28;20038;-61
2022/01/17 07:40:21;;;;;;;0.85;0.30;;;;;;;10.92;33.04;99406.41;4986108;28;20029;-62
2022/01/17 07:42:46;;;;;;;1.30;0.38;;;;;;;10.72;32.36;99418.44;5004253;28;20226;-61
2022/01/17 07:45:14;;;;;;;2.25;0.40;;;;;;;10.54;30.87;99407.78;5001201;28;20035;-61
2022/01/17 07:50:30;;;;;;;1.55;0.40;;;;;;;10.64;30.85;99423.47;4940681;28;25435;-63
2022/01/17 07:52:56;;;;;;;1.13;0.30;;;;;;;10.87;28.81;99418.97;4994366;28;20076;-63
2022/01/17 07:55:21;;;;;;;1.45;0.30;;;;;;;10.89;31.34;99430.06;5003332;28;20111;-62
2022/01/17 07:57:48;;;;;;;1.50;0.40;;;;;;;10.82;32.43;99415.91;4996230;28;20037;-63
2022/01/17 08:00:20;;;;;;;0.98;0.32;;;;;;;10.98;29.97;99412.88;4999591;28;20034;-63
2022/01/17 08:02:47;;;;;;;0.65;0.30;;;;;;;11.01;30.54;99422.22;5001431;28;20125;-63
2022/01/17 08:05:14;;;;;;;1.35;0.40;;;;;;;11.11;28.79;99423.91;5001393;28;20117;-62
2022/01/17 08:07:40;;;;;;;1.05;0.30;;;;;;;11.41;28.95;99427.50;5002837;28;20164;-63
2022/01/17 08:10:12;;;;;;;1.13;0.38;;;;;;;11.40;30.41;99423.22;4997644;28;20014;-63
2022/01/17 08:12:41;;;;;;;3.40;0.30;;;;;;;11.75;26.44;99416.78;4947161;28;20508;-60
2022/01/17 08:15:07;;;;;;;1.10;0.52;;;;;;;11.76;26.92;99409.81;4995380;28;20109;-63
2022/01/17 08:17:33;;;;;;;1.15;0.35;;;;;;;11.84;27.23;99371.69;5002162;28;20671;-63
2022/01/17 08:19:58;;;;;;;1.05;0.30;;;;;;;11.66;28.99;99392.38;5002932;28;20038;-63
2022/01/17 08:22:23;;;;;;;1.00;0.30;;;;;;;11.37;29.66;99399.22;4998575;28;20083;-62
2022/01/17 08:24:49;;;;;;;0.65;0.20;;;;;;;11.21;31.40;99408.34;4998927;28;20029;-63
2022/01/17 08:27:14;;;;;;;1.83;0.30;;;;;;;11.44;28.48;99411.59;4991275;28;20045;-63
2022/01/17 08:29:39;;;;;;;1.65;0.40;;;;;;;11.09;30.90;99383.34;4971905;28;20028;-62
2022/01/17 08:32:07;;;;;;;1.63;0.38;;;;;;;11.19;30.03;99417.22;4990303;28;20448;-63
2022/01/17 08:34:32;;;;;;;1.17;0.32;;;;;;;11.28;28.13;99427.72;4938521;28;20091;-62
2022/01/17 08:36:58;;;;;;;1.13;0.32;;;;;;;11.67;27.07;99440.06;4994776;28;20481;-63
2022/01/17 08:39:24;;;;;;;1.50;0.30;;;;;;;11.64;27.19;99433.34;4986686;28;20072;-63
2022/01/17 08:41:50;;;;;;;1.52;0.40;;;;;;;11.76;26.58;99448.91;4999136;28;20030;-62
2022/01/17 08:44:18;;;;;;;1.17;0.30;;;;;;;11.67;28.10;99447.91;5002074;28;20056;-62
2022/01/17 08:46:44;;;;;;;1.42;0.38;;;;;;;11.60;29.82;99446.75;4995852;28;20091;-63
2022/01/17 08:49:10;;;;;;;1.38;0.40;;;;;;;11.47;30.12;99454.78;4994192;28;20025;-63
2022/01/17 08:51:35;;;;;;;1.55;0.40;;;;;;;11.36;31.69;99473.94;4995247;28;20515;-62
2022/01/17 08:54:01;;;;;;;0.52;0.20;;;;;;;11.39;30.95;99462.41;4994487;28;20511;-63
2022/01/17 08:56:29;;;;;;;2.53;0.50;;;;;;;11.27;30.60;99457.28;4985009;28;20040;-60
2022/01/17 08:58:55;;;;;;;1.58;0.50;;;;;;;11.16;29.95;99410.50;5003226;28;20064;-63
2022/01/17 09:01:22;;;;;;;1.40;0.40;;;;;;;11.34;29.27;99442.81;4996902;28;20123;-60
2022/01/17 09:03:48;;;;;;;1.73;0.45;;;;;;;11.13;30.85;99397.75;4997495;28;20018;-60
2022/01/17 09:06:13;;;;;;;0.40;0.20;;;;;;;11.06;31.66;99433.03;4999698;28;20061;-62
2022/01/17 09:08:38;;;;;;;1.00;0.30;;;;;;;11.15;31.33;99453.09;4999235;28;20105;-62
2022/01/17 09:11:04;;;;;;;2.25;0.50;;;;;;;10.99;30.51;99421.50;4999899;28;20112;-63
2022/01/17 09:13:30;;;;;;;2.15;0.40;;;;;;;11.18;31.13;99463.25;4984371;28;20674;-61
2022/01/17 09:15:55;;;;;;;2.08;0.50;;;;;;;11.24;30.34;99457.53;4962241;28;20022;-61
2022/01/17 09:18:22;;;;;;;0.93;0.30;;;;;;;11.25;30.84;99446.19;4977076;28;20030;-62
2022/01/17 09:20:47;;;;;;;3.90;1.30;;;;;;;11.12;31.39;99446.38;4999747;28;20568;-63
2022/01/17 09:23:13;;;;;;;3.45;1.10;;;;;;;11.13;31.89;99462.81;4993103;28;20351;-63
2022/01/17 09:25:39;;;;;;;2.63;0.65;;;;;;;11.16;30.44;99467.78;5004100;28;20065;-60
2022/01/17 09:28:04;;;;;;;2.40;0.45;;;;;;;11.21;30.62;99477.78;5006128;28;20030;-63
2022/01/17 09:30:30;;;;;;;1.40;0.50;;;;;;;11.21;30.23;99489.06;5002365;28;20026;-60
2022/01/17 09:32:56;;;;;;;2.50;0.50;;;;;;;11.26;31.25;99525.94;5003116;28;20021;-60
2022/01/17 09:35:21;;;;;;;1.83;0.70;;;;;;;11.00;28.85;99486.44;5005500;28;20423;-62
2022/01/17 09:37:47;;;;;;;1.05;0.32;;;;;;;11.33;29.44;99534.91;4986388;28;20030;-60
2022/01/17 09:40:12;;;;;;;2.92;0.80;;;;;;;11.34;30.45;99535.72;5005956;28;20496;-62
2022/01/17 09:42:38;;;;;;;1.60;0.47;;;;;;;11.23;31.46;99522.78;4988293;28;20100;-61
2022/01/17 09:45:06;;;;;;;1.52;0.40;;;;;;;11.15;29.56;99486.94;4989494;28;20030;-62
2022/01/17 09:47:34;;;;;;;2.20;0.60;;;;;;;11.29;28.72;99512.66;4988937;28;20557;-61
2022/01/17 09:50:01;;;;;;;2.08;0.55;;;;;;;11.37;28.72;99500.78;5006537;28;20402;-61
2022/01/17 09:52:35;;;;;;;3.25;0.75;;;;;;;11.34;28.19;99465.41;5003599;28;20041;-61
2022/01/17 09:55:07;;;;;;;0.82;0.22;;;;;;;11.76;25.85;99469.72;4990648;28;20058;-61
2022/01/17 09:57:36;;;;;;;1.27;0.50;;;;;;;11.90;25.83;99467.63;5003954;28;20478;-62
2022/01/17 10:00:03;;;;;;;2.20;0.50;;;;;;;11.95;25.46;99441.16;4937699;28;20309;-61
2022/01/17 10:02:28;;;;;;;1.75;0.50;;;;;;;11.82;27.33;99482.22;4996101;28;20060;-62
2022/01/17 10:04:53;;;;;;;2.38;0.38;;;;;;;11.92;25.58;99485.75;5004617;28;20037;-61
2022/01/17 10:07:19;;;;;;;1.33;0.40;;;;;;;11.60;26.30;99436.34;5007718;28;20471;-62
2022/01/17 10:09:55;;;;;;;1.65;0.55;;;;;;;11.87;26.13;99470.44;5005425;28;20064;-61
2022/01/17 10:12:20;;;;;;;1.27;0.40;;;;;;;11.62;26.33;99432.63;5000253;28;20037;-61
2022/01/17 10:14:59;;;;;;;1.80;0.57;;;;;;;11.81;26.85;99475.34;4987866;28;20033;-61
2022/01/17 10:17:56;;;;;;;1.75;0.40;;;;;;;11.81;26.10;99476.19;4989665;28;20045;-61
2022/01/17 10:20:21;;;;;;;1.08;0.40;;;;;;;11.72;27.28;99463.97;4989352;28;20053;-61
2022/01/17 10:22:57;;;;;;;1.00;0.40;;;;;;;11.74;27.12;99480.28;5003372;28;20588;-62
2022/01/17 10:28:58;;;;;;;1.17;0.50;;;;;;;11.71;27.80;99472.72;5005792;28;20100;-61
2022/01/17 10:34:52;;;;;;;1.60;0.40;;;;;;;11.72;27.78;99479.59;4999056;28;20504;-61
2022/01/17 10:36:49;;;;;;;1.35;0.40;;;;;;;11.79;27.91;99485.94;5003609;28;20184;-60
2022/01/17 10:39:15;;;;;;;1.85;0.57;;;;;;;11.77;28.08;99492.22;5005407;28;20041;-61
2022/01/17 10:41:41;;;;;;;2.75;0.50;;;;;;;11.69;27.83;99498.09;4952354;28;20034;-61
2022/01/17 10:44:06;;;;;;;1.30;0.40;;;;;;;11.64;27.58;99472.41;4992454;28;20026;-62
2022/01/17 10:46:32;;;;;;;1.70;0.47;;;;;;;11.62;27.92;99483.91;5002246;28;20038;-61
2022/01/17 10:48:57;;;;;;;2.05;0.50;;;;;;;11.55;27.30;99465.38;4994797;28;20018;-61
2022/01/17 10:51:28;;;;;;;1.55;0.50;;;;;;;11.68;26.84;99499.03;4986764;28;20350;-61
2022/01/17 10:53:55;;;;;;;1.67;0.55;;;;;;;11.59;27.20;99492.84;5004556;28;20149;-61
2022/01/17 10:56:23;;;;;;;2.05;0.60;;;;;;;11.65;26.72;99500.13;5002782;28;20830;-61
2022/01/17 10:59:04;;;;;;;1.27;0.50;;;;;;;11.73;26.72;99491.66;5005710;28;20018;-61
2022/01/17 11:01:37;;;;;;;1.55;0.45;;;;;;;11.76;26.14;99480.16;4962492;28;20029;-61
2022/01/17 11:04:04;;;;;;;1.73;0.50;;;;;;;11.90;26.51;99482.41;5001487;28;20023;-62
2022/01/17 11:06:29;;;;;;;2.13;0.60;;;;;;;11.87;25.72;99475.66;5003786;28;20112;-60
2022/01/17 11:09:05;;;;;;;1.58;0.50;;;;;;;11.85;26.83;99495.81;4982974;28;20059;-62
2022/01/17 11:11:31;;;;;;;1.35;0.40;;;;;;;12.07;25.35;99494.00;4991511;28;20452;-60
2022/01/17 11:14:00;;;;;;;3.13;0.50;;;;;;;12.13;25.71;99485.66;4989364;28;20018;-61
2022/01/17 11:16:28;;;;;;;2.28;0.68;;;;;;;12.20;25.96;99491.97;4990161;28;20022;-60
2022/01/17 11:18:58;;;;;;;1.15;0.40;;;;;;;12.09;25.35;99448.59;5002289;28;20046;-61
2022/01/17 11:21:23;;;;;;;1.55;0.60;;;;;;;12.33;25.41;99485.69;4985347;28;20436;-62
2022/01/17 11:23:49;;;;;;;2.13;0.60;;;;;;;12.39;25.75;99475.53;5001457;28;20034;-61
2022/01/17 11:26:15;;;;;;;1.42;0.50;;;;;;;12.47;25.73;99474.88;4992228;28;20033;-61
2022/01/17 11:28:42;;;;;;;2.25;0.55;;;;;;;12.46;25.43;99461.00;4993691;28;20026;-61
2022/01/17 11:31:12;;;;;;;1.80;0.50;;;;;;;12.49;25.00;99444.25;4981051;28;20034;-61
2022/01/17 11:33:38;;;;;;;1.65;0.50;;;;;;;12.59;26.18;99459.91;4993713;28;20062;-61
2022/01/17 11:36:04;;;;;;;2.15;0.63;;;;;;;12.64;25.45;99439.47;4993617;28;20125;-62
2022/01/17 11:38:31;;;;;;;3.88;0.90;;;;;;;12.63;25.80;99417.78;5000711;28;20021;-61
2022/01/17 11:40:58;;;;;;;1.67;0.50;;;;;;;12.60;25.63;99402.38;5000179;28;20037;-60
2022/01/17 11:43:35;;;;;;;1.00;0.30;;;;;;;12.69;25.28;99385.09;4994884;28;20080;-61
2022/01/17 11:46:03;;;;;;;2.45;0.50;;;;;;;12.60;25.60;99352.00;4979173;28;20045;-61
2022/01/17 11:48:32;;;;;;;1.80;0.70;;;;;;;12.75;25.54;99384.50;4998955;28;20021;-61
2022/01/17 11:51:18;;;;;;;2.33;0.50;;;;;;;12.82;25.78;99411.69;4995885;28;20476;-60
2022/01/17 11:53:52;;;;;;;1.52;0.50;;;;;;;12.91;25.03;99435.34;4998028;28;20539;-61
2022/01/17 11:56:50;;;;;;;3.17;0.80;;;;;;;12.68;25.50;99386.84;4999799;28;20025;-61
2022/01/17 11:59:39;;;;;;;0.70;0.30;;;;;;;12.98;24.61;99407.72;4989201;28;20080;-61